sensor_id;sensor_type;location;lat;lon;timestamp;P1;durP1;ratioP1;P2;durP2;ratioP2
3791;SDS011;1911;53.768;11.474;2023-05-21T00:01:35;5.23;;;2.20;;
3791;SDS011;1911;53.768;11.474;2023-05-21T00:04:01;5.77;;;1.93;;
3791;SDS011;1911;53.768;11.474;2023-05-21T00:06:27;5.50;;;2.43;;
3791;SDS011;1911;53.768;11.474;2023-05-21T00:08:53;7.80;;;2.30;;
3791;SDS011;1911;53.768;11.474;2023-05-21T00:11:18;6.37;;;3.40;;
3791;SDS011;1911;53.768;11.474;2023-05-21T00:13:44;8.07;;;2.50;;
3791;SDS011;1911;53.768;11.474;2023-05-21T00:16:09;4.23;;;2.40;;
3791;SDS011;1911;53.768;11.474;2023-05-21T00:18:36;5.10;;;2.07;;
3791;SDS011;1911;53.768;11.474;2023-05-21T00:21:04;5.53;;;2.40;;
3791;SDS011;1911;53.768;11.474;2023-05-21T00:23:30;4.20;;;2.07;;
3791;SDS011;1911;53.768;11.474;2023-05-21T00:25:57;6.00;;;2.57;;
3791;SDS011;1911;53.768;11.474;2023-05-21T00:28:23;18.87;;;2.80;;
3791;SDS011;1911;53.768;11.474;2023-05-21T00:30:49;5.70;;;2.37;;
3791;SDS011;1911;53.768;11.474;2023-05-21T00:33:14;5.57;;;3.10;;
3791;SDS011;1911;53.768;11.474;2023-05-21T00:35:40;7.37;;;2.60;;
3791;SDS011;1911;53.768;11.474;2023-05-21T00:38:07;3.83;;;1.97;;
3791;SDS011;1911;53.768;11.474;2023-05-21T00:40:33;3.63;;;2.43;;
3791;SDS011;1911;53.768;11.474;2023-05-21T00:43:05;5.80;;;2.90;;
3791;SDS011;1911;53.768;11.474;2023-05-21T00:45:34;3.20;;;2.27;;
3791;SDS011;1911;53.768;11.474;2023-05-21T00:48:01;4.97;;;2.67;;
3791;SDS011;1911;53.768;11.474;2023-05-21T00:50:28;7.90;;;3.10;;
3791;SDS011;1911;53.768;11.474;2023-05-21T00:52:55;7.33;;;2.90;;
3791;SDS011;1911;53.768;11.474;2023-05-21T00:55:20;4.20;;;2.23;;
3791;SDS011;1911;53.768;11.474;2023-05-21T00:57:46;3.27;;;2.07;;
3791;SDS011;1911;53.768;11.474;2023-05-21T01:00:13;4.40;;;2.27;;
3791;SDS011;1911;53.768;11.474;2023-05-21T01:02:40;4.20;;;2.37;;
3791;SDS011;1911;53.768;11.474;2023-05-21T01:05:06;4.57;;;3.10;;
3791;SDS011;1911;53.768;11.474;2023-05-21T01:07:32;3.73;;;2.20;;
3791;SDS011;1911;53.768;11.474;2023-05-21T01:10:03;4.43;;;2.17;;
3791;SDS011;1911;53.768;11.474;2023-05-21T01:12:31;4.93;;;2.47;;
3791;SDS011;1911;53.768;11.474;2023-05-21T01:14:58;5.30;;;2.70;;
3791;SDS011;1911;53.768;11.474;2023-05-21T01:17:28;8.40;;;2.83;;
3791;SDS011;1911;53.768;11.474;2023-05-21T01:19:56;3.50;;;2.10;;
3791;SDS011;1911;53.768;11.474;2023-05-21T01:22:22;5.90;;;2.70;;
3791;SDS011;1911;53.768;11.474;2023-05-21T01:24:49;6.13;;;3.20;;
3791;SDS011;1911;53.768;11.474;2023-05-21T01:27:15;3.63;;;1.90;;
3791;SDS011;1911;53.768;11.474;2023-05-21T01:29:41;5.10;;;2.77;;
3791;SDS011;1911;53.768;11.474;2023-05-21T01:32:12;8.43;;;2.47;;
3791;SDS011;1911;53.768;11.474;2023-05-21T01:37:21;10.83;;;3.17;;
3791;SDS011;1911;53.768;11.474;2023-05-21T01:39:52;7.53;;;2.90;;
3791;SDS011;1911;53.768;11.474;2023-05-21T01:42:21;5.80;;;2.77;;
3791;SDS011;1911;53.768;11.474;2023-05-21T01:44:49;12.43;;;3.30;;
3791;SDS011;1911;53.768;11.474;2023-05-21T01:47:19;4.70;;;2.73;;
3791;SDS011;1911;53.768;11.474;2023-05-21T01:49:47;7.73;;;2.70;;
3791;SDS011;1911;53.768;11.474;2023-05-21T01:52:14;4.70;;;3.10;;
3791;SDS011;1911;53.768;11.474;2023-05-21T01:54:40;5.80;;;3.27;;
3791;SDS011;1911;53.768;11.474;2023-05-21T01:57:05;4.37;;;2.13;;
3791;SDS011;1911;53.768;11.474;2023-05-21T01:59:31;4.70;;;3.10;;
3791;SDS011;1911;53.768;11.474;2023-05-21T02:01:57;10.70;;;3.60;;
3791;SDS011;1911;53.768;11.474;2023-05-21T02:04:22;4.73;;;2.43;;
3791;SDS011;1911;53.768;11.474;2023-05-21T02:06:48;6.67;;;3.27;;
3791;SDS011;1911;53.768;11.474;2023-05-21T02:09:14;4.10;;;2.43;;
3791;SDS011;1911;53.768;11.474;2023-05-21T02:11:39;10.73;;;2.90;;
3791;SDS011;1911;53.768;11.474;2023-05-21T02:14:05;4.60;;;3.03;;
3791;SDS011;1911;53.768;11.474;2023-05-21T02:16:31;4.87;;;2.30;;
3791;SDS011;1911;53.768;11.474;2023-05-21T02:18:58;4.23;;;2.87;;
3791;SDS011;1911;53.768;11.474;2023-05-21T02:21:24;5.07;;;3.20;;
3791;SDS011;1911;53.768;11.474;2023-05-21T02:23:50;6.90;;;2.83;;
3791;SDS011;1911;53.768;11.474;2023-05-21T02:26:15;3.40;;;2.80;;
3791;SDS011;1911;53.768;11.474;2023-05-21T02:28:41;10.10;;;3.70;;
3791;SDS011;1911;53.768;11.474;2023-05-21T02:31:08;6.73;;;3.03;;
3791;SDS011;1911;53.768;11.474;2023-05-21T02:33:33;7.60;;;3.50;;
3791;SDS011;1911;53.768;11.474;2023-05-21T02:35:59;8.97;;;3.10;;
3791;SDS011;1911;53.768;11.474;2023-05-21T02:38:24;7.10;;;3.50;;
3791;SDS011;1911;53.768;11.474;2023-05-21T02:40:50;4.17;;;2.80;;
3791;SDS011;1911;53.768;11.474;2023-05-21T02:43:16;8.63;;;3.20;;
3791;SDS011;1911;53.768;11.474;2023-05-21T02:45:45;9.57;;;3.43;;
3791;SDS011;1911;53.768;11.474;2023-05-21T02:48:10;8.00;;;3.37;;
3791;SDS011;1911;53.768;11.474;2023-05-21T02:50:36;6.80;;;3.33;;
3791;SDS011;1911;53.768;11.474;2023-05-21T02:53:01;7.77;;;3.00;;
3791;SDS011;1911;53.768;11.474;2023-05-21T02:55:27;8.80;;;3.90;;
3791;SDS011;1911;53.768;11.474;2023-05-21T02:57:52;10.47;;;3.33;;
3791;SDS011;1911;53.768;11.474;2023-05-21T03:00:18;8.97;;;3.20;;
3791;SDS011;1911;53.768;11.474;2023-05-21T03:02:43;5.50;;;3.50;;
3791;SDS011;1911;53.768;11.474;2023-05-21T03:05:09;6.03;;;3.47;;
3791;SDS011;1911;53.768;11.474;2023-05-21T03:07:35;8.40;;;3.20;;
3791;SDS011;1911;53.768;11.474;2023-05-21T03:10:00;10.03;;;3.80;;
3791;SDS011;1911;53.768;11.474;2023-05-21T03:12:26;4.70;;;3.20;;
3791;SDS011;1911;53.768;11.474;2023-05-21T03:14:51;5.13;;;3.33;;
3791;SDS011;1911;53.768;11.474;2023-05-21T03:17:17;8.20;;;3.70;;
3791;SDS011;1911;53.768;11.474;2023-05-21T03:19:43;5.83;;;4.40;;
3791;SDS011;1911;53.768;11.474;2023-05-21T03:22:09;7.47;;;3.93;;
3791;SDS011;1911;53.768;11.474;2023-05-21T03:24:36;7.20;;;3.70;;
3791;SDS011;1911;53.768;11.474;2023-05-21T03:27:02;12.63;;;4.20;;
3791;SDS011;1911;53.768;11.474;2023-05-21T03:29:30;6.20;;;4.23;;
3791;SDS011;1911;53.768;11.474;2023-05-21T03:31:56;8.43;;;3.90;;
3791;SDS011;1911;53.768;11.474;2023-05-21T03:34:22;6.20;;;4.17;;
3791;SDS011;1911;53.768;11.474;2023-05-21T03:36:48;6.87;;;4.33;;
3791;SDS011;1911;53.768;11.474;2023-05-21T03:39:14;7.50;;;3.80;;
3791;SDS011;1911;53.768;11.474;2023-05-21T03:41:40;12.43;;;4.03;;
3791;SDS011;1911;53.768;11.474;2023-05-21T03:44:06;6.70;;;4.27;;
3791;SDS011;1911;53.768;11.474;2023-05-21T03:46:32;6.87;;;4.17;;
3791;SDS011;1911;53.768;11.474;2023-05-21T03:48:57;5.03;;;3.70;;
3791;SDS011;1911;53.768;11.474;2023-05-21T03:51:23;10.53;;;4.93;;
3791;SDS011;1911;53.768;11.474;2023-05-21T03:53:49;5.00;;;4.23;;
3791;SDS011;1911;53.768;11.474;2023-05-21T03:56:15;8.50;;;3.80;;
3791;SDS011;1911;53.768;11.474;2023-05-21T03:58:41;5.50;;;4.00;;
3791;SDS011;1911;53.768;11.474;2023-05-21T04:01:07;9.20;;;4.70;;
3791;SDS011;1911;53.768;11.474;2023-05-21T04:03:33;10.60;;;4.30;;
3791;SDS011;1911;53.768;11.474;2023-05-21T04:06:02;12.23;;;4.40;;
3791;SDS011;1911;53.768;11.474;2023-05-21T04:08:28;7.77;;;4.30;;
3791;SDS011;1911;53.768;11.474;2023-05-21T04:10:54;13.17;;;5.47;;
3791;SDS011;1911;53.768;11.474;2023-05-21T04:13:20;14.50;;;4.93;;
3791;SDS011;1911;53.768;11.474;2023-05-21T04:15:46;11.90;;;4.70;;
3791;SDS011;1911;53.768;11.474;2023-05-21T04:18:12;8.77;;;4.37;;
3791;SDS011;1911;53.768;11.474;2023-05-21T04:20:40;6.13;;;3.60;;
3791;SDS011;1911;53.768;11.474;2023-05-21T04:23:06;6.47;;;4.23;;
3791;SDS011;1911;53.768;11.474;2023-05-21T04:25:31;8.93;;;4.70;;
3791;SDS011;1911;53.768;11.474;2023-05-21T04:27:57;10.03;;;5.63;;
3791;SDS011;1911;53.768;11.474;2023-05-21T04:30:24;9.63;;;5.00;;
3791;SDS011;1911;53.768;11.474;2023-05-21T04:32:49;7.53;;;4.90;;
3791;SDS011;1911;53.768;11.474;2023-05-21T04:35:16;10.47;;;5.00;;
3791;SDS011;1911;53.768;11.474;2023-05-21T04:37:42;6.47;;;4.60;;
3791;SDS011;1911;53.768;11.474;2023-05-21T04:40:09;8.60;;;4.43;;
3791;SDS011;1911;53.768;11.474;2023-05-21T04:42:36;9.20;;;4.80;;
3791;SDS011;1911;53.768;11.474;2023-05-21T04:45:03;9.93;;;4.70;;
3791;SDS011;1911;53.768;11.474;2023-05-21T04:47:29;7.60;;;4.87;;
3791;SDS011;1911;53.768;11.474;2023-05-21T04:49:59;7.70;;;4.90;;
3791;SDS011;1911;53.768;11.474;2023-05-21T04:52:25;9.03;;;4.77;;
3791;SDS011;1911;53.768;11.474;2023-05-21T04:54:51;5.80;;;4.40;;
3791;SDS011;1911;53.768;11.474;2023-05-21T04:57:18;8.87;;;5.13;;
3791;SDS011;1911;53.768;11.474;2023-05-21T04:59:43;11.33;;;4.70;;
3791;SDS011;1911;53.768;11.474;2023-05-21T05:02:09;8.73;;;5.17;;
3791;SDS011;1911;53.768;11.474;2023-05-21T05:04:35;6.57;;;4.50;;
3791;SDS011;1911;53.768;11.474;2023-05-21T05:07:00;6.67;;;4.13;;
3791;SDS011;1911;53.768;11.474;2023-05-21T05:09:26;7.40;;;4.60;;
3791;SDS011;1911;53.768;11.474;2023-05-21T05:11:52;8.93;;;5.07;;
3791;SDS011;1911;53.768;11.474;2023-05-21T05:14:17;7.90;;;5.10;;
3791;SDS011;1911;53.768;11.474;2023-05-21T05:16:43;7.20;;;4.80;;
3791;SDS011;1911;53.768;11.474;2023-05-21T05:19:11;5.90;;;4.67;;
3791;SDS011;1911;53.768;11.474;2023-05-21T05:21:37;8.50;;;4.00;;
3791;SDS011;1911;53.768;11.474;2023-05-21T05:24:03;13.13;;;5.50;;
3791;SDS011;1911;53.768;11.474;2023-05-21T05:26:29;5.87;;;4.03;;
3791;SDS011;1911;53.768;11.474;2023-05-21T05:28:54;8.03;;;5.07;;
3791;SDS011;1911;53.768;11.474;2023-05-21T05:31:20;13.30;;;4.20;;
3791;SDS011;1911;53.768;11.474;2023-05-21T05:33:49;4.67;;;4.10;;
3791;SDS011;1911;53.768;11.474;2023-05-21T05:36:24;5.90;;;4.53;;
3791;SDS011;1911;53.768;11.474;2023-05-21T05:38:53;7.07;;;4.53;;
3791;SDS011;1911;53.768;11.474;2023-05-21T05:41:18;7.50;;;4.63;;
3791;SDS011;1911;53.768;11.474;2023-05-21T05:43:45;5.97;;;4.30;;
3791;SDS011;1911;53.768;11.474;2023-05-21T05:46:11;8.87;;;4.70;;
3791;SDS011;1911;53.768;11.474;2023-05-21T05:48:37;8.50;;;5.40;;
3791;SDS011;1911;53.768;11.474;2023-05-21T05:51:03;7.53;;;5.40;;
3791;SDS011;1911;53.768;11.474;2023-05-21T05:53:29;7.50;;;5.43;;
3791;SDS011;1911;53.768;11.474;2023-05-21T05:55:55;9.40;;;5.47;;
3791;SDS011;1911;53.768;11.474;2023-05-21T05:58:21;9.70;;;4.97;;
3791;SDS011;1911;53.768;11.474;2023-05-21T06:00:47;10.43;;;5.80;;
3791;SDS011;1911;53.768;11.474;2023-05-21T06:03:12;7.20;;;5.20;;
3791;SDS011;1911;53.768;11.474;2023-05-21T06:05:38;9.13;;;5.40;;
3791;SDS011;1911;53.768;11.474;2023-05-21T06:08:09;8.20;;;5.80;;
3791;SDS011;1911;53.768;11.474;2023-05-21T06:10:45;10.70;;;7.90;;
3791;SDS011;1911;53.768;11.474;2023-05-21T06:14:18;8.53;;;5.70;;
3791;SDS011;1911;53.768;11.474;2023-05-21T06:17:23;8.13;;;5.93;;
3791;SDS011;1911;53.768;11.474;2023-05-21T06:19:49;10.63;;;6.67;;
3791;SDS011;1911;53.768;11.474;2023-05-21T06:22:14;10.60;;;6.43;;
3791;SDS011;1911;53.768;11.474;2023-05-21T06:24:40;7.87;;;6.03;;
3791;SDS011;1911;53.768;11.474;2023-05-21T06:27:06;8.83;;;6.13;;
3791;SDS011;1911;53.768;11.474;2023-05-21T06:29:31;7.60;;;5.53;;
3791;SDS011;1911;53.768;11.474;2023-05-21T06:31:57;12.20;;;6.73;;
3791;SDS011;1911;53.768;11.474;2023-05-21T06:34:41;7.97;;;4.90;;
3791;SDS011;1911;53.768;11.474;2023-05-21T06:37:10;7.03;;;5.30;;
3791;SDS011;1911;53.768;11.474;2023-05-21T06:39:38;6.70;;;5.67;;
3791;SDS011;1911;53.768;11.474;2023-05-21T07:08:42;9.20;;;6.30;;
3791;SDS011;1911;53.768;11.474;2023-05-21T07:11:08;7.17;;;5.70;;
3791;SDS011;1911;53.768;11.474;2023-05-21T07:13:34;6.37;;;5.77;;
3791;SDS011;1911;53.768;11.474;2023-05-21T07:16:00;7.70;;;6.97;;
3791;SDS011;1911;53.768;11.474;2023-05-21T07:18:26;7.90;;;6.67;;
3791;SDS011;1911;53.768;11.474;2023-05-21T07:20:51;11.60;;;6.97;;
3791;SDS011;1911;53.768;11.474;2023-05-21T07:23:17;10.77;;;7.40;;
3791;SDS011;1911;53.768;11.474;2023-05-21T07:25:43;8.90;;;7.07;;
3791;SDS011;1911;53.768;11.474;2023-05-21T07:28:09;9.27;;;7.40;;
3791;SDS011;1911;53.768;11.474;2023-05-21T07:30:34;7.90;;;6.37;;
3791;SDS011;1911;53.768;11.474;2023-05-21T07:33:00;9.47;;;7.70;;
3791;SDS011;1911;53.768;11.474;2023-05-21T07:35:25;12.77;;;7.70;;
3791;SDS011;1911;53.768;11.474;2023-05-21T07:37:51;9.83;;;7.30;;
3791;SDS011;1911;53.768;11.474;2023-05-21T07:40:16;8.93;;;6.90;;
3791;SDS011;1911;53.768;11.474;2023-05-21T07:42:42;10.30;;;7.80;;
3791;SDS011;1911;53.768;11.474;2023-05-21T07:45:08;8.73;;;7.83;;
3791;SDS011;1911;53.768;11.474;2023-05-21T07:47:34;9.80;;;7.80;;
3791;SDS011;1911;53.768;11.474;2023-05-21T07:49:59;10.50;;;8.50;;
3791;SDS011;1911;53.768;11.474;2023-05-21T07:52:25;10.07;;;7.30;;
3791;SDS011;1911;53.768;11.474;2023-05-21T07:54:51;17.53;;;9.30;;
3791;SDS011;1911;53.768;11.474;2023-05-21T07:57:17;15.87;;;9.67;;
3791;SDS011;1911;53.768;11.474;2023-05-21T07:59:43;12.90;;;7.30;;
3791;SDS011;1911;53.768;11.474;2023-05-21T08:02:08;8.80;;;7.63;;
3791;SDS011;1911;53.768;11.474;2023-05-21T08:04:34;9.67;;;8.17;;
3791;SDS011;1911;53.768;11.474;2023-05-21T08:07:00;9.00;;;7.60;;
3791;SDS011;1911;53.768;11.474;2023-05-21T08:09:26;8.70;;;7.80;;
3791;SDS011;1911;53.768;11.474;2023-05-21T08:11:52;8.23;;;6.90;;
3791;SDS011;1911;53.768;11.474;2023-05-21T08:14:17;10.23;;;8.13;;
3791;SDS011;1911;53.768;11.474;2023-05-21T08:16:43;10.30;;;8.33;;
3791;SDS011;1911;53.768;11.474;2023-05-21T08:19:10;9.53;;;6.93;;
3791;SDS011;1911;53.768;11.474;2023-05-21T08:21:35;12.07;;;7.63;;
3791;SDS011;1911;53.768;11.474;2023-05-21T08:24:01;9.13;;;7.60;;
3791;SDS011;1911;53.768;11.474;2023-05-21T08:26:27;9.33;;;8.20;;
3791;SDS011;1911;53.768;11.474;2023-05-21T08:28:53;9.57;;;7.70;;
3791;SDS011;1911;53.768;11.474;2023-05-21T08:31:18;12.23;;;7.43;;
3791;SDS011;1911;53.768;11.474;2023-05-21T08:33:50;8.07;;;6.67;;
3791;SDS011;1911;53.768;11.474;2023-05-21T08:36:17;8.80;;;7.53;;
3791;SDS011;1911;53.768;11.474;2023-05-21T08:38:43;8.83;;;7.77;;
3791;SDS011;1911;53.768;11.474;2023-05-21T08:41:09;10.27;;;9.23;;
3791;SDS011;1911;53.768;11.474;2023-05-21T08:43:36;10.17;;;7.77;;
3791;SDS011;1911;53.768;11.474;2023-05-21T08:46:03;10.40;;;8.80;;
3791;SDS011;1911;53.768;11.474;2023-05-21T08:48:29;8.63;;;7.83;;
3791;SDS011;1911;53.768;11.474;2023-05-21T08:50:55;8.70;;;7.57;;
3791;SDS011;1911;53.768;11.474;2023-05-21T08:53:22;9.80;;;8.37;;
3791;SDS011;1911;53.768;11.474;2023-05-21T08:55:52;15.70;;;8.40;;
3791;SDS011;1911;53.768;11.474;2023-05-21T08:58:19;9.50;;;8.37;;
3791;SDS011;1911;53.768;11.474;2023-05-21T09:00:45;10.50;;;9.07;;
3791;SDS011;1911;53.768;11.474;2023-05-21T09:03:11;11.37;;;8.70;;
3791;SDS011;1911;53.768;11.474;2023-05-21T09:05:40;9.60;;;8.60;;
3791;SDS011;1911;53.768;11.474;2023-05-21T09:10:40;10.20;;;8.63;;
3791;SDS011;1911;53.768;11.474;2023-05-21T09:13:16;8.73;;;7.93;;
3791;SDS011;1911;53.768;11.474;2023-05-21T09:15:45;9.90;;;8.90;;
3791;SDS011;1911;53.768;11.474;2023-05-21T09:18:12;12.77;;;9.37;;
3791;SDS011;1911;53.768;11.474;2023-05-21T09:20:38;11.03;;;8.57;;
3791;SDS011;1911;53.768;11.474;2023-05-21T09:23:05;11.70;;;9.50;;
3791;SDS011;1911;53.768;11.474;2023-05-21T09:25:36;11.80;;;10.00;;
3791;SDS011;1911;53.768;11.474;2023-05-21T09:28:03;11.70;;;10.27;;
3791;SDS011;1911;53.768;11.474;2023-05-21T09:30:35;9.40;;;8.50;;
3791;SDS011;1911;53.768;11.474;2023-05-21T09:33:00;10.33;;;9.23;;
3791;SDS011;1911;53.768;11.474;2023-05-21T09:35:27;11.50;;;9.23;;
3791;SDS011;1911;53.768;11.474;2023-05-21T09:37:54;14.13;;;9.90;;
3791;SDS011;1911;53.768;11.474;2023-05-21T09:40:21;11.20;;;8.70;;
3791;SDS011;1911;53.768;11.474;2023-05-21T09:42:54;11.40;;;9.57;;
3791;SDS011;1911;53.768;11.474;2023-05-21T09:45:20;13.33;;;9.63;;
3791;SDS011;1911;53.768;11.474;2023-05-21T09:47:47;11.60;;;9.63;;
3791;SDS011;1911;53.768;11.474;2023-05-21T09:50:18;12.60;;;8.90;;
3791;SDS011;1911;53.768;11.474;2023-05-21T09:52:45;10.53;;;8.37;;
3791;SDS011;1911;53.768;11.474;2023-05-21T09:55:12;11.83;;;9.60;;
3791;SDS011;1911;53.768;11.474;2023-05-21T09:57:41;9.23;;;7.80;;
3791;SDS011;1911;53.768;11.474;2023-05-21T10:00:09;10.87;;;8.63;;
3791;SDS011;1911;53.768;11.474;2023-05-21T10:02:44;10.07;;;8.53;;
3791;SDS011;1911;53.768;11.474;2023-05-21T10:05:12;10.53;;;9.43;;
3791;SDS011;1911;53.768;11.474;2023-05-21T10:07:40;9.13;;;8.33;;
3791;SDS011;1911;53.768;11.474;2023-05-21T10:10:09;9.90;;;7.90;;
3791;SDS011;1911;53.768;11.474;2023-05-21T10:12:38;10.27;;;9.23;;
3791;SDS011;1911;53.768;11.474;2023-05-21T10:15:08;10.53;;;9.43;;
3791;SDS011;1911;53.768;11.474;2023-05-21T10:17:37;9.33;;;8.43;;
3791;SDS011;1911;53.768;11.474;2023-05-21T10:20:05;16.83;;;9.20;;
3791;SDS011;1911;53.768;11.474;2023-05-21T10:22:34;17.00;;;8.23;;
3791;SDS011;1911;53.768;11.474;2023-05-21T10:25:01;8.73;;;7.83;;
3791;SDS011;1911;53.768;11.474;2023-05-21T10:27:30;9.50;;;8.17;;
3791;SDS011;1911;53.768;11.474;2023-05-21T10:29:57;10.10;;;8.23;;
3791;SDS011;1911;53.768;11.474;2023-05-21T10:32:24;10.80;;;8.03;;
3791;SDS011;1911;53.768;11.474;2023-05-21T10:34:52;8.40;;;7.53;;
3791;SDS011;1911;53.768;11.474;2023-05-21T10:37:19;9.73;;;7.73;;
3791;SDS011;1911;53.768;11.474;2023-05-21T10:39:48;13.13;;;8.27;;
3791;SDS011;1911;53.768;11.474;2023-05-21T11:01:15;9.00;;;8.10;;
3791;SDS011;1911;53.768;11.474;2023-05-21T11:03:43;11.03;;;8.03;;
3791;SDS011;1911;53.768;11.474;2023-05-21T11:06:10;9.73;;;7.67;;
3791;SDS011;1911;53.768;11.474;2023-05-21T11:08:47;8.43;;;7.63;;
3791;SDS011;1911;53.768;11.474;2023-05-21T11:11:13;9.27;;;7.77;;
3791;SDS011;1911;53.768;11.474;2023-05-21T11:22:09;9.93;;;7.37;;
3791;SDS011;1911;53.768;11.474;2023-05-21T11:24:45;10.93;;;9.20;;
3791;SDS011;1911;53.768;11.474;2023-05-21T11:27:11;9.50;;;8.50;;
3791;SDS011;1911;53.768;11.474;2023-05-21T11:29:41;10.80;;;8.47;;
3791;SDS011;1911;53.768;11.474;2023-05-21T11:32:09;13.10;;;8.40;;
3791;SDS011;1911;53.768;11.474;2023-05-21T11:34:36;9.33;;;8.47;;
3791;SDS011;1911;53.768;11.474;2023-05-21T11:39:45;9.30;;;8.27;;
3791;SDS011;1911;53.768;11.474;2023-05-21T11:42:12;9.20;;;8.23;;
3791;SDS011;1911;53.768;11.474;2023-05-21T11:44:51;10.10;;;8.47;;
3791;SDS011;1911;53.768;11.474;2023-05-21T11:47:17;9.40;;;8.50;;
3791;SDS011;1911;53.768;11.474;2023-05-21T11:49:44;9.17;;;8.20;;
3791;SDS011;1911;53.768;11.474;2023-05-21T11:52:10;9.03;;;8.13;;
3791;SDS011;1911;53.768;11.474;2023-05-21T11:54:44;8.83;;;7.93;;
3791;SDS011;1911;53.768;11.474;2023-05-21T11:57:12;8.80;;;7.90;;
3791;SDS011;1911;53.768;11.474;2023-05-21T11:59:42;9.47;;;8.47;;
3791;SDS011;1911;53.768;11.474;2023-05-21T12:02:14;8.87;;;7.27;;
3791;SDS011;1911;53.768;11.474;2023-05-21T12:04:41;8.50;;;7.60;;
3791;SDS011;1911;53.768;11.474;2023-05-21T12:07:08;8.43;;;7.27;;
3791;SDS011;1911;53.768;11.474;2023-05-21T12:09:41;8.37;;;7.40;;
3791;SDS011;1911;53.768;11.474;2023-05-21T12:12:07;8.53;;;6.83;;
3791;SDS011;1911;53.768;11.474;2023-05-21T12:14:34;11.30;;;7.30;;
3791;SDS011;1911;53.768;11.474;2023-05-21T12:17:01;8.00;;;7.20;;
3791;SDS011;1911;53.768;11.474;2023-05-21T12:19:27;8.77;;;6.87;;
3791;SDS011;1911;53.768;11.474;2023-05-21T12:21:56;7.90;;;7.03;;
3791;SDS011;1911;53.768;11.474;2023-05-21T12:24:25;8.10;;;7.30;;
3791;SDS011;1911;53.768;11.474;2023-05-21T12:26:51;14.73;;;7.17;;
3791;SDS011;1911;53.768;11.474;2023-05-21T12:29:19;10.27;;;8.13;;
3791;SDS011;1911;53.768;11.474;2023-05-21T12:31:48;8.30;;;7.50;;
3791;SDS011;1911;53.768;11.474;2023-05-21T12:34:14;8.50;;;7.70;;
3791;SDS011;1911;53.768;11.474;2023-05-21T12:36:42;9.03;;;7.57;;
3791;SDS011;1911;53.768;11.474;2023-05-21T12:39:15;7.97;;;7.17;;
3791;SDS011;1911;53.768;11.474;2023-05-21T12:41:41;10.53;;;7.77;;
3791;SDS011;1911;53.768;11.474;2023-05-21T12:44:07;8.13;;;7.33;;
3791;SDS011;1911;53.768;11.474;2023-05-21T12:46:35;8.83;;;7.93;;
3791;SDS011;1911;53.768;11.474;2023-05-21T12:49:01;9.63;;;7.27;;
3791;SDS011;1911;53.768;11.474;2023-05-21T12:51:36;8.40;;;7.60;;
3791;SDS011;1911;53.768;11.474;2023-05-21T12:54:03;8.23;;;7.43;;
3791;SDS011;1911;53.768;11.474;2023-05-21T12:56:42;8.80;;;6.47;;
3791;SDS011;1911;53.768;11.474;2023-05-21T12:59:16;9.00;;;8.20;;
3791;SDS011;1911;53.768;11.474;2023-05-21T13:01:45;10.13;;;8.37;;
3791;SDS011;1911;53.768;11.474;2023-05-21T13:04:12;8.00;;;7.20;;
3791;SDS011;1911;53.768;11.474;2023-05-21T13:06:41;9.50;;;8.50;;
3791;SDS011;1911;53.768;11.474;2023-05-21T13:09:07;9.47;;;7.47;;
3791;SDS011;1911;53.768;11.474;2023-05-21T13:11:33;8.03;;;7.33;;
3791;SDS011;1911;53.768;11.474;2023-05-21T13:13:59;8.10;;;7.30;;
3791;SDS011;1911;53.768;11.474;2023-05-21T13:16:24;8.67;;;7.83;;
3791;SDS011;1911;53.768;11.474;2023-05-21T13:18:50;9.77;;;8.80;;
3791;SDS011;1911;53.768;11.474;2023-05-21T13:21:15;8.20;;;7.47;;
3791;SDS011;1911;53.768;11.474;2023-05-21T13:23:41;9.70;;;7.80;;
3791;SDS011;1911;53.768;11.474;2023-05-21T13:26:06;10.87;;;7.10;;
3791;SDS011;1911;53.768;11.474;2023-05-21T13:28:33;7.57;;;6.87;;
3791;SDS011;1911;53.768;11.474;2023-05-21T13:30:59;9.93;;;6.50;;
3791;SDS011;1911;53.768;11.474;2023-05-21T13:33:24;8.67;;;6.47;;
3791;SDS011;1911;53.768;11.474;2023-05-21T13:35:50;8.10;;;7.20;;
3791;SDS011;1911;53.768;11.474;2023-05-21T13:38:16;11.60;;;7.00;;
3791;SDS011;1911;53.768;11.474;2023-05-21T13:40:42;8.40;;;7.53;;
3791;SDS011;1911;53.768;11.474;2023-05-21T13:43:07;8.63;;;6.90;;
3791;SDS011;1911;53.768;11.474;2023-05-21T13:45:33;7.40;;;6.60;;
3791;SDS011;1911;53.768;11.474;2023-05-21T13:47:58;8.87;;;6.80;;
3791;SDS011;1911;53.768;11.474;2023-05-21T13:50:24;13.40;;;6.60;;
3791;SDS011;1911;53.768;11.474;2023-05-21T13:52:50;9.03;;;7.60;;
3791;SDS011;1911;53.768;11.474;2023-05-21T13:55:15;10.73;;;6.20;;
3791;SDS011;1911;53.768;11.474;2023-05-21T13:57:41;10.00;;;6.90;;
3791;SDS011;1911;53.768;11.474;2023-05-21T14:00:07;9.33;;;7.33;;
3791;SDS011;1911;53.768;11.474;2023-05-21T14:02:36;7.07;;;6.23;;
3791;SDS011;1911;53.768;11.474;2023-05-21T14:05:02;11.00;;;6.47;;
3791;SDS011;1911;53.768;11.474;2023-05-21T14:07:27;6.67;;;5.93;;
3791;SDS011;1911;53.768;11.474;2023-05-21T14:09:53;12.87;;;5.93;;
3791;SDS011;1911;53.768;11.474;2023-05-21T14:12:18;8.53;;;6.43;;
3791;SDS011;1911;53.768;11.474;2023-05-21T14:14:45;23.73;;;7.03;;
3791;SDS011;1911;53.768;11.474;2023-05-21T14:17:13;6.67;;;6.07;;
3791;SDS011;1911;53.768;11.474;2023-05-21T14:19:39;7.67;;;6.63;;
3791;SDS011;1911;53.768;11.474;2023-05-21T14:22:05;6.30;;;5.70;;
3791;SDS011;1911;53.768;11.474;2023-05-21T14:24:30;8.50;;;6.37;;
3791;SDS011;1911;53.768;11.474;2023-05-21T14:26:56;8.03;;;6.87;;
3791;SDS011;1911;53.768;11.474;2023-05-21T14:29:22;7.60;;;6.73;;
3791;SDS011;1911;53.768;11.474;2023-05-21T14:31:47;7.40;;;6.30;;
3791;SDS011;1911;53.768;11.474;2023-05-21T14:34:13;8.30;;;5.90;;
3791;SDS011;1911;53.768;11.474;2023-05-21T14:36:38;8.50;;;6.30;;
3791;SDS011;1911;53.768;11.474;2023-05-21T14:39:04;8.67;;;6.77;;
3791;SDS011;1911;53.768;11.474;2023-05-21T14:41:30;7.33;;;6.20;;
3791;SDS011;1911;53.768;11.474;2023-05-21T14:43:55;7.63;;;6.23;;
3791;SDS011;1911;53.768;11.474;2023-05-21T14:46:21;8.43;;;6.67;;
3791;SDS011;1911;53.768;11.474;2023-05-21T14:48:46;7.00;;;6.30;;
3791;SDS011;1911;53.768;11.474;2023-05-21T14:51:12;6.33;;;5.70;;
3791;SDS011;1911;53.768;11.474;2023-05-21T14:53:38;6.37;;;5.70;;
3791;SDS011;1911;53.768;11.474;2023-05-21T14:56:05;7.90;;;5.77;;
3791;SDS011;1911;53.768;11.474;2023-05-21T14:58:31;6.10;;;5.37;;
3791;SDS011;1911;53.768;11.474;2023-05-21T15:00:56;7.30;;;5.37;;
3791;SDS011;1911;53.768;11.474;2023-05-21T15:03:22;6.90;;;5.40;;
3791;SDS011;1911;53.768;11.474;2023-05-21T15:05:48;6.57;;;5.40;;
3791;SDS011;1911;53.768;11.474;2023-05-21T15:08:13;7.27;;;5.70;;
3791;SDS011;1911;53.768;11.474;2023-05-21T15:10:39;6.00;;;5.33;;
3791;SDS011;1911;53.768;11.474;2023-05-21T15:13:04;8.20;;;6.43;;
3791;SDS011;1911;53.768;11.474;2023-05-21T15:15:30;9.83;;;5.83;;
3791;SDS011;1911;53.768;11.474;2023-05-21T15:17:55;8.40;;;6.87;;
3791;SDS011;1911;53.768;11.474;2023-05-21T15:20:21;9.17;;;5.80;;
3791;SDS011;1911;53.768;11.474;2023-05-21T15:22:47;8.97;;;6.40;;
3791;SDS011;1911;53.768;11.474;2023-05-21T15:25:13;8.63;;;7.83;;
3791;SDS011;1911;53.768;11.474;2023-05-21T15:27:38;11.33;;;7.80;;
3791;SDS011;1911;53.768;11.474;2023-05-21T15:30:04;11.73;;;8.30;;
3791;SDS011;1911;53.768;11.474;2023-05-21T15:32:30;10.23;;;9.00;;
3791;SDS011;1911;53.768;11.474;2023-05-21T15:34:56;15.10;;;9.00;;
3791;SDS011;1911;53.768;11.474;2023-05-21T15:37:22;10.60;;;8.70;;
3791;SDS011;1911;53.768;11.474;2023-05-21T15:39:47;8.87;;;7.93;;
3791;SDS011;1911;53.768;11.474;2023-05-21T15:42:13;10.20;;;8.70;;
3791;SDS011;1911;53.768;11.474;2023-05-21T15:44:39;11.10;;;8.00;;
3791;SDS011;1911;53.768;11.474;2023-05-21T15:47:05;11.30;;;8.73;;
3791;SDS011;1911;53.768;11.474;2023-05-21T15:49:31;9.77;;;8.00;;
3791;SDS011;1911;53.768;11.474;2023-05-21T15:51:57;9.97;;;8.97;;
3791;SDS011;1911;53.768;11.474;2023-05-21T15:54:24;12.20;;;8.30;;
3791;SDS011;1911;53.768;11.474;2023-05-21T15:56:50;11.63;;;9.27;;
3791;SDS011;1911;53.768;11.474;2023-05-21T15:59:16;9.93;;;8.37;;